createdAt,value
2019-01-20T00:03:08.563Z,19.03
2019-01-20T00:08:11.873Z,19.90
2019-01-20T00:13:17.967Z,20.60
2019-01-20T00:18:21.087Z,19.33
2019-01-20T00:23:30.410Z,19.50
2019-01-20T00:28:36.688Z,20.40
2019-01-20T00:33:42.402Z,21.17
2019-01-20T00:38:49.043Z,19.90
2019-01-20T00:43:52.382Z,20.00
2019-01-20T00:48:58.528Z,19.90
2019-01-20T00:54:08.032Z,21.30
2019-01-20T00:59:14.290Z,20.33
2019-01-20T01:04:20.849Z,21.00
2019-01-20T01:09:24.673Z,21.43
2019-01-20T01:14:28.017Z,22.70
2019-01-20T01:19:31.145Z,20.93
2019-01-20T01:24:34.618Z,21.37
2019-01-20T01:29:37.918Z,21.53
2019-01-20T01:34:44.398Z,21.73
2019-01-20T01:39:50.739Z,22.30
2019-01-20T01:44:53.904Z,21.37
2019-01-20T01:49:57.259Z,23.57
2019-01-20T01:55:00.542Z,22.17
2019-01-20T02:00:07.681Z,22.50
2019-01-20T02:05:12.966Z,22.20
2019-01-20T02:10:20.611Z,22.00
2019-01-20T02:15:23.944Z,21.37
2019-01-20T02:20:27.227Z,23.27
2019-01-20T02:25:30.539Z,21.87
2019-01-20T02:30:36.819Z,22.40
2019-01-20T02:35:40.123Z,22.20
2019-01-20T02:40:46.331Z,23.47
2019-01-20T02:45:49.587Z,22.63
2019-01-20T02:50:52.845Z,23.40
2019-01-20T02:55:56.059Z,23.87
2019-01-20T03:00:59.463Z,23.33
2019-01-20T03:06:03.545Z,23.07
2019-01-20T03:11:07.095Z,22.80
2019-01-20T03:16:10.579Z,22.20
2019-01-20T03:21:16.927Z,21.50
2019-01-20T03:26:23.238Z,22.10
2019-01-20T03:31:30.036Z,23.40
2019-01-20T03:36:34.260Z,23.30
2019-01-20T03:41:42.293Z,23.17
2019-01-20T03:46:46.315Z,22.97
2019-01-20T03:51:57.903Z,23.87
2019-01-20T03:57:02.261Z,24.27
2019-01-20T04:02:06.384Z,22.40
2019-01-20T04:07:13.689Z,24.00
2019-01-20T04:12:20.799Z,24.10
2019-01-20T04:17:23.275Z,24.03
2019-01-20T04:22:28.896Z,23.90
2019-01-20T04:27:32.767Z,23.00
2019-01-20T04:32:37.512Z,22.50
2019-01-20T04:37:41.133Z,24.13
2019-01-20T04:42:44.540Z,23.77
2019-01-20T04:47:48.114Z,23.63
2019-01-20T04:52:51.674Z,23.20
2019-01-20T04:57:55.396Z,23.80
2019-01-20T05:02:58.737Z,22.93
2019-01-20T05:08:02.157Z,22.13
2019-01-20T05:13:05.475Z,20.87
2019-01-20T05:18:14.697Z,22.50
2019-01-20T05:23:18.016Z,22.10
2019-01-20T05:28:30.171Z,21.10
2019-01-20T05:33:33.545Z,22.00
2019-01-20T05:38:38.531Z,21.67
2019-01-20T05:43:48.494Z,21.10
2019-01-20T05:48:53.784Z,20.73
2019-01-20T05:53:58.884Z,22.50
2019-01-20T05:59:03.738Z,20.20
2019-01-20T06:04:07.193Z,21.00
2019-01-20T06:09:13.886Z,18.63
2019-01-20T06:14:17.325Z,20.87
2019-01-20T06:19:20.325Z,20.27
2019-01-20T06:24:23.816Z,18.77
2019-01-20T06:29:37.919Z,20.80
2019-01-20T06:34:40.829Z,21.70
2019-01-20T06:39:45.051Z,21.33
2019-01-20T06:44:48.422Z,20.60
2019-01-20T06:49:51.481Z,20.03
2019-01-20T06:54:54.303Z,18.87
2019-01-20T06:59:57.113Z,20.13
2019-01-20T07:05:00.844Z,19.90
2019-01-20T07:10:04.795Z,19.27
2019-01-20T07:15:21.208Z,18.20
2019-01-20T07:20:24.578Z,18.97
2019-01-20T07:25:28.040Z,19.20
2019-01-20T07:30:31.232Z,19.10
2019-01-20T07:35:34.563Z,19.30
2019-01-20T07:40:39.269Z,18.90
2019-01-20T07:45:43.177Z,18.53
2019-01-20T07:50:47.770Z,19.17
2019-01-20T07:55:51.700Z,19.20
2019-01-20T08:00:55.020Z,18.10
2019-01-20T08:06:01.197Z,19.37
2019-01-20T08:11:04.812Z,19.27
2019-01-20T08:16:08.503Z,19.67
2019-01-20T08:21:14.387Z,19.50
2019-01-20T08:26:23.614Z,18.90
2019-01-20T08:31:30.146Z,19.50
2019-01-20T08:36:35.999Z,18.90
2019-01-20T08:41:41.344Z,18.50
2019-01-20T08:46:52.384Z,19.00
2019-01-20T08:52:01.471Z,18.63
2019-01-20T08:57:05.472Z,18.67
2019-01-20T09:02:10.920Z,19.90
2019-01-20T09:07:15.009Z,18.77
2019-01-20T09:12:19.138Z,18.13
2019-01-20T09:17:46.491Z,18.27
2019-01-20T09:22:50.428Z,17.10
2019-01-20T09:28:01.814Z,16.20
2019-01-20T09:33:07.544Z,18.07
2019-01-20T09:38:11.865Z,20.23
2019-01-20T09:43:15.382Z,19.63
2019-01-20T09:48:18.841Z,20.60
2019-01-20T09:53:22.598Z,17.90
2019-01-20T09:58:25.899Z,18.60
2019-01-20T10:03:29.298Z,20.30
2019-01-20T10:08:32.757Z,17.80
2019-01-20T10:13:36.260Z,17.60
2019-01-20T10:18:39.646Z,18.50
2019-01-20T10:23:45.672Z,17.93
2019-01-20T10:28:49.210Z,19.20
2019-01-20T10:33:52.493Z,19.63
2019-01-20T10:38:55.628Z,18.63
2019-01-20T10:44:02.243Z,19.50
2019-01-20T10:49:05.523Z,18.67
2019-01-20T10:54:08.780Z,17.60
2019-01-20T10:59:14.936Z,16.07
2019-01-20T11:04:24.770Z,16.33
2019-01-20T11:09:28.136Z,17.90
2019-01-20T11:14:32.033Z,16.17
2019-01-20T11:19:35.351Z,17.80
2019-01-20T11:24:38.378Z,15.63
2019-01-20T11:29:41.574Z,17.53
2019-01-20T11:34:44.448Z,17.57
2019-01-20T11:39:50.665Z,16.77
2019-01-20T11:44:55.484Z,16.63
2019-01-20T11:49:58.319Z,19.30
2019-01-20T11:55:01.868Z,17.17
2019-01-20T12:00:07.537Z,15.77
2019-01-20T12:05:11.820Z,16.27
2019-01-20T12:10:15.213Z,16.13
2019-01-20T12:15:19.408Z,15.80
2019-01-20T12:20:30.608Z,16.03
2019-01-20T12:25:33.894Z,15.83
2019-01-20T12:30:38.479Z,14.77
2019-01-20T12:35:41.730Z,14.93
2019-01-20T12:40:55.562Z,15.80
2019-01-20T12:46:02.111Z,15.70
2019-01-20T12:51:05.374Z,14.90
2019-01-20T12:56:08.686Z,17.13
2019-01-20T13:01:12.102Z,17.40
2019-01-20T13:06:18.457Z,18.07
2019-01-20T13:11:25.253Z,16.50
2019-01-20T13:16:29.547Z,17.23
2019-01-20T13:21:33.063Z,17.80
2019-01-20T13:26:39.321Z,19.43
2019-01-20T13:31:42.791Z,18.83
2019-01-20T13:36:46.115Z,18.87
2019-01-20T13:41:49.515Z,20.23
2019-01-20T13:46:52.826Z,17.53
2019-01-20T13:51:56.277Z,18.03
2019-01-20T13:56:59.590Z,17.07
2019-01-20T14:02:03.005Z,18.57
2019-01-20T14:07:06.544Z,17.63
2019-01-20T14:12:15.390Z,18.27
2019-01-20T14:17:18.898Z,18.37
2019-01-20T14:22:22.250Z,19.33
2019-01-20T14:27:25.107Z,19.87
2019-01-20T14:32:37.257Z,19.77
2019-01-20T14:37:40.481Z,19.20
2019-01-20T14:42:47.122Z,19.17
2019-01-20T14:47:50.640Z,18.93
2019-01-20T14:52:57.410Z,18.40
2019-01-20T14:58:00.831Z,18.13
2019-01-20T15:03:04.841Z,18.53
2019-01-20T15:08:08.694Z,18.63
2019-01-20T15:13:12.243Z,19.60
2019-01-20T15:18:15.585Z,20.47
2019-01-20T15:23:36.545Z,20.77
2019-01-20T15:28:39.901Z,20.80
2019-01-20T15:33:43.293Z,28.43
2019-01-20T15:38:46.646Z,25.83
2019-01-20T15:43:50.021Z,20.33
2019-01-20T15:48:53.474Z,22.50
2019-01-20T15:54:02.742Z,21.60
2019-01-20T15:59:12.134Z,21.80
2019-01-20T16:04:15.651Z,19.17
2019-01-20T16:09:32.858Z,22.77
2019-01-20T16:14:41.950Z,19.33
2019-01-20T16:19:45.263Z,19.10
2019-01-20T16:24:48.728Z,20.40
2019-01-20T16:29:52.245Z,19.27
2019-01-20T16:34:55.757Z,19.77
2019-01-20T16:39:59.171Z,19.93
2019-01-20T16:45:02.558Z,20.53
2019-01-20T16:50:07.355Z,20.17
2019-01-20T16:55:11.181Z,18.30
2019-01-20T17:00:17.600Z,18.90
2019-01-20T17:05:21.047Z,19.97
2019-01-20T17:10:31.350Z,20.60
2019-01-20T17:15:39.715Z,20.47
2019-01-20T17:20:44.349Z,18.30
2019-01-20T17:25:50.012Z,18.40
2019-01-20T17:30:53.397Z,18.83
2019-01-20T17:35:56.887Z,20.70
2019-01-20T17:41:00.398Z,21.73
2019-01-20T17:46:09.889Z,20.60
2019-01-20T17:51:13.207Z,20.67
2019-01-20T17:56:16.706Z,22.13
2019-01-20T18:01:20.157Z,23.57
2019-01-20T18:06:23.545Z,22.80
2019-01-20T18:11:29.891Z,21.90
2019-01-20T18:16:35.363Z,22.63
2019-01-20T18:21:38.717Z,22.00
2019-01-20T18:26:42.118Z,22.60
2019-01-20T18:31:48.658Z,22.20
2019-01-20T18:36:58.420Z,20.93
2019-01-20T18:42:01.937Z,23.80
2019-01-20T18:47:08.317Z,22.90
2019-01-20T18:52:11.838Z,24.50
2019-01-20T18:57:15.375Z,31.30
2019-01-20T19:02:19.120Z,29.50
2019-01-20T19:07:22.585Z,25.10
2019-01-20T19:12:29.073Z,23.10
2019-01-20T19:17:34.073Z,23.97
2019-01-20T19:22:37.557Z,23.90
2019-01-20T19:27:43.354Z,25.50
2019-01-20T19:32:46.677Z,29.03
2019-01-20T19:37:50.131Z,29.77
2019-01-20T19:42:53.235Z,28.07
2019-01-20T19:47:56.092Z,29.50
2019-01-20T19:53:00.883Z,26.07
2019-01-20T19:58:04.702Z,26.73
2019-01-20T20:03:11.184Z,27.30
2019-01-20T20:08:14.626Z,27.70
2019-01-20T20:13:17.646Z,27.10
2019-01-20T20:18:20.945Z,26.07
2019-01-20T20:23:24.355Z,24.13
2019-01-20T20:28:30.548Z,26.90
2019-01-20T20:33:33.881Z,25.43
2019-01-20T20:38:37.330Z,25.80
2019-01-20T20:43:40.456Z,25.07
2019-01-20T20:48:46.428Z,25.07
2019-01-20T20:53:50.024Z,23.67
2019-01-20T20:58:56.052Z,25.83
2019-01-20T21:03:59.442Z,26.60
2019-01-20T21:09:02.731Z,25.60
2019-01-20T21:14:08.896Z,24.53
2019-01-20T21:19:12.413Z,24.27
2019-01-20T21:24:15.764Z,24.70
2019-01-20T21:29:19.236Z,24.87
2019-01-20T21:34:34.015Z,25.03
2019-01-20T21:39:40.016Z,29.43
2019-01-20T21:44:44.280Z,27.90
2019-01-20T21:49:50.543Z,27.70
2019-01-20T21:54:53.811Z,29.40
2019-01-20T21:59:57.145Z,26.90
2019-01-20T22:05:03.676Z,29.73
2019-01-20T22:10:14.756Z,28.90
2019-01-20T22:15:18.312Z,28.13
2019-01-20T22:20:22.598Z,29.87
2019-01-20T22:25:25.940Z,30.23
2019-01-20T22:30:28.789Z,29.90
2019-01-20T22:35:32.372Z,28.60
2019-01-20T22:40:38.755Z,30.17
2019-01-20T22:45:42.171Z,29.73
2019-01-20T22:50:45.615Z,32.37
2019-01-20T22:55:54.549Z,29.33
2019-01-20T23:01:08.109Z,30.87
2019-01-20T23:06:17.667Z,29.27
2019-01-20T23:11:21.003Z,29.97
2019-01-20T23:16:24.151Z,29.40
2019-01-20T23:21:27.296Z,29.10
2019-01-20T23:26:30.514Z,27.90
2019-01-20T23:31:36.891Z,25.80
2019-01-20T23:36:40.191Z,26.40
2019-01-20T23:41:45.298Z,26.50
2019-01-20T23:46:53.129Z,25.80
2019-01-20T23:51:56.674Z,26.30
2019-01-20T23:57:00.153Z,27.90
